createdAt,value
2018-04-28T00:00:13.032Z,0.00
2018-04-28T00:01:13.010Z,0.00
2018-04-28T00:02:12.993Z,0.00
2018-04-28T00:03:12.972Z,0.00
2018-04-28T00:04:12.947Z,0.00
2018-04-28T00:05:12.929Z,0.00
2018-04-28T00:06:12.911Z,0.00
2018-04-28T00:07:12.890Z,0.00
2018-04-28T00:08:12.908Z,0.00
2018-04-28T00:09:12.846Z,0.00
2018-04-28T00:10:12.828Z,0.00
2018-04-28T00:11:12.825Z,0.00
2018-04-28T00:12:12.831Z,0.00
2018-04-28T00:13:12.767Z,0.00
2018-04-28T00:14:12.746Z,0.00
2018-04-28T00:15:12.727Z,0.00
2018-04-28T00:16:12.712Z,0.00
2018-04-28T00:17:12.687Z,0.00
2018-04-28T00:18:12.687Z,0.00
2018-04-28T00:19:12.667Z,0.00
2018-04-28T00:20:12.639Z,0.00
2018-04-28T00:21:12.610Z,0.00
2018-04-28T00:22:12.592Z,0.00
2018-04-28T00:23:12.589Z,0.00
2018-04-28T00:24:12.594Z,0.00
2018-04-28T00:25:12.569Z,0.00
2018-04-28T00:26:12.509Z,0.00
2018-04-28T00:27:12.485Z,0.00
2018-04-28T00:28:12.469Z,0.00
2018-04-28T00:29:12.446Z,0.00
2018-04-28T00:30:12.429Z,0.00
2018-04-28T00:31:12.429Z,0.00
2018-04-28T00:32:12.386Z,0.00
2018-04-28T00:33:12.367Z,0.00
2018-04-28T00:34:12.345Z,0.00
2018-04-28T00:35:12.331Z,0.00
2018-04-28T00:36:12.307Z,0.00
2018-04-28T00:37:12.285Z,0.00
2018-04-28T00:38:12.264Z,0.00
2018-04-28T00:39:12.256Z,0.00
2018-04-28T00:40:12.227Z,0.00
2018-04-28T00:41:12.204Z,0.00
2018-04-28T00:42:12.183Z,0.00
2018-04-28T00:43:12.169Z,0.00
2018-04-28T00:44:12.146Z,0.00
2018-04-28T00:45:12.123Z,0.00
2018-04-28T00:46:12.108Z,0.00
2018-04-28T00:47:12.083Z,0.00
2018-04-28T00:48:12.064Z,0.00
2018-04-28T00:49:12.044Z,0.00
2018-04-28T00:50:12.027Z,0.00
2018-04-28T00:51:12.008Z,0.00
2018-04-28T00:52:11.983Z,0.00
2018-04-28T00:53:11.963Z,0.00
2018-04-28T00:54:11.944Z,0.00
2018-04-28T00:55:11.924Z,0.00
2018-04-28T00:56:11.910Z,0.00
2018-04-28T00:57:11.890Z,0.00
2018-04-28T00:58:11.869Z,0.00
2018-04-28T00:59:11.843Z,0.00
2018-04-28T01:00:11.822Z,0.00
2018-04-28T01:01:11.804Z,0.00
2018-04-28T01:02:11.786Z,0.00
2018-04-28T01:03:11.765Z,0.00
2018-04-28T01:04:11.743Z,0.00
2018-04-28T01:05:11.724Z,0.00
2018-04-28T01:06:11.727Z,0.00
2018-04-28T01:07:11.694Z,0.00
2018-04-28T01:08:11.665Z,0.00
2018-04-28T01:09:11.646Z,0.00
2018-04-28T01:10:11.627Z,0.00
2018-04-28T01:11:11.611Z,0.00
2018-04-28T01:12:11.586Z,0.00
2018-04-28T01:13:11.573Z,0.00
2018-04-28T01:14:11.549Z,0.00
2018-04-28T01:15:11.527Z,0.00
2018-04-28T01:16:11.507Z,0.00
2018-04-28T01:17:11.485Z,0.00
2018-04-28T01:18:11.466Z,0.00
2018-04-28T01:19:11.446Z,0.00
2018-04-28T01:20:11.431Z,0.00
2018-04-28T01:21:11.419Z,0.00
2018-04-28T01:22:11.384Z,0.00
2018-04-28T01:23:11.389Z,0.00
2018-04-28T01:24:11.360Z,0.00
2018-04-28T01:25:11.343Z,0.00
2018-04-28T01:26:11.305Z,0.00
2018-04-28T01:27:11.287Z,0.00
2018-04-28T01:28:11.270Z,0.00
2018-04-28T01:29:11.250Z,0.00
2018-04-28T01:30:11.226Z,0.00
2018-04-28T01:31:11.207Z,0.00
2018-04-28T01:32:11.188Z,0.00
2018-04-28T01:33:11.167Z,0.00
2018-04-28T01:34:11.147Z,0.00
2018-04-28T01:35:11.128Z,0.00
2018-04-28T01:36:11.128Z,0.00
2018-04-28T01:37:11.087Z,0.00
2018-04-28T01:38:11.066Z,0.00
2018-04-28T01:39:11.053Z,0.00
2018-04-28T01:40:11.027Z,0.00
2018-04-28T01:41:11.007Z,0.00
2018-04-28T01:42:10.988Z,0.00
2018-04-28T01:43:10.971Z,0.00
2018-04-28T01:44:10.947Z,0.00
2018-04-28T01:45:10.938Z,0.00
2018-04-28T01:46:10.910Z,0.00
2018-04-28T01:47:10.895Z,0.00
2018-04-28T01:48:10.870Z,0.00
2018-04-28T01:49:10.847Z,0.00
2018-04-28T01:50:10.829Z,0.00
2018-04-28T01:51:10.811Z,0.00
2018-04-28T01:52:10.800Z,0.00
2018-04-28T01:53:10.766Z,0.00
2018-04-28T01:54:10.749Z,0.00
2018-04-28T01:55:10.732Z,0.00
2018-04-28T01:56:10.709Z,0.00
2018-04-28T01:57:10.690Z,0.00
2018-04-28T01:58:10.671Z,0.00
2018-04-28T01:59:10.667Z,0.00
2018-04-28T02:00:10.629Z,0.00
2018-04-28T02:01:10.611Z,0.00
2018-04-28T02:02:10.592Z,0.00
2018-04-28T02:03:10.570Z,0.00
2018-04-28T02:04:10.550Z,0.00
2018-04-28T02:05:10.531Z,0.00
2018-04-28T02:06:10.509Z,0.00
2018-04-28T02:07:10.489Z,0.00
2018-04-28T02:08:10.468Z,0.00
2018-04-28T02:09:10.449Z,0.00
2018-04-28T02:10:10.430Z,0.00
2018-04-28T02:11:10.413Z,0.00
2018-04-28T02:12:10.390Z,0.00
2018-04-28T02:13:10.370Z,0.00
2018-04-28T02:14:10.354Z,0.00
2018-04-28T02:15:10.331Z,0.00
2018-04-28T02:16:10.314Z,0.00
2018-04-28T02:17:10.292Z,0.00
2018-04-28T02:18:10.271Z,0.00
2018-04-28T02:19:10.249Z,0.00
2018-04-28T02:20:10.231Z,0.00
2018-04-28T02:21:10.211Z,0.00
2018-04-28T02:22:10.190Z,0.00
2018-04-28T02:23:10.170Z,0.00
2018-04-28T02:24:10.151Z,0.00
2018-04-28T02:25:10.132Z,0.00
2018-04-28T02:26:10.113Z,0.00
2018-04-28T02:27:10.101Z,0.00
2018-04-28T02:28:10.072Z,0.00
2018-04-28T02:29:10.050Z,0.00
2018-04-28T02:30:10.040Z,0.00
2018-04-28T02:31:10.010Z,0.00
2018-04-28T02:32:10.007Z,0.00
2018-04-28T02:33:09.973Z,0.00
2018-04-28T02:34:09.953Z,0.00
2018-04-28T02:35:09.928Z,0.00
2018-04-28T02:36:09.921Z,0.00
2018-04-28T02:37:09.890Z,0.00
2018-04-28T02:38:09.876Z,0.00
2018-04-28T02:39:09.876Z,0.00
2018-04-28T02:40:09.851Z,0.00
2018-04-28T02:41:09.861Z,0.00
2018-04-28T02:42:09.793Z,0.00
2018-04-28T02:43:09.774Z,0.00
2018-04-28T02:44:09.751Z,0.00
2018-04-28T02:45:09.734Z,0.00
2018-04-28T02:46:09.719Z,0.00
2018-04-28T02:47:09.696Z,0.00
2018-04-28T02:48:09.739Z,0.00
2018-04-28T02:49:09.650Z,0.00
2018-04-28T02:50:09.662Z,0.00
2018-04-28T02:51:09.611Z,0.00
2018-04-28T02:52:09.595Z,0.00
2018-04-28T02:53:09.573Z,0.00
2018-04-28T02:54:09.550Z,0.00
2018-04-28T02:55:09.536Z,0.00
2018-04-28T02:56:09.536Z,0.00
2018-04-28T02:57:09.492Z,0.00
2018-04-28T02:58:09.481Z,0.00
2018-04-28T02:59:09.468Z,0.00
2018-04-28T03:00:09.466Z,0.00
2018-04-28T03:01:09.413Z,0.00
2018-04-28T03:02:09.390Z,0.00
2018-04-28T03:03:09.385Z,0.00
2018-04-28T03:04:09.349Z,0.00
2018-04-28T03:05:09.332Z,0.00
2018-04-28T03:06:09.311Z,0.00
2018-04-28T03:07:09.290Z,0.00
2018-04-28T03:08:09.281Z,0.00
2018-04-28T03:09:09.254Z,0.00
2018-04-28T03:10:09.235Z,0.00
2018-04-28T03:11:09.210Z,0.00
2018-04-28T03:12:09.192Z,0.00
2018-04-28T03:13:09.170Z,0.00
2018-04-28T03:14:09.152Z,0.00
2018-04-28T03:15:09.129Z,0.00
2018-04-28T03:16:09.110Z,0.00
2018-04-28T03:17:09.089Z,0.00
2018-04-28T03:18:09.081Z,0.00
2018-04-28T03:19:09.050Z,0.00
2018-04-28T03:20:09.031Z,0.00
2018-04-28T03:21:09.011Z,0.00
2018-04-28T03:22:08.994Z,0.00
2018-04-28T03:23:08.969Z,0.00
2018-04-28T03:24:08.949Z,0.00
2018-04-28T03:25:08.932Z,0.00
2018-04-28T03:26:08.911Z,0.00
2018-04-28T03:27:08.888Z,0.00
2018-04-28T03:28:08.869Z,0.00
2018-04-28T03:29:08.852Z,0.00
2018-04-28T03:30:08.833Z,0.00
2018-04-28T03:31:08.819Z,0.00
2018-04-28T03:32:08.794Z,0.00
2018-04-28T03:33:08.767Z,0.00
2018-04-28T03:34:08.748Z,0.00
2018-04-28T03:35:08.728Z,0.00
2018-04-28T03:36:08.712Z,0.00
2018-04-28T03:37:08.720Z,0.00
2018-04-28T03:38:08.674Z,0.00
2018-04-28T03:39:08.651Z,0.00
2018-04-28T03:40:08.628Z,0.00
2018-04-28T03:41:08.608Z,0.00
2018-04-28T03:42:08.586Z,0.00
2018-04-28T03:43:08.567Z,0.00
2018-04-28T03:44:08.550Z,0.00
2018-04-28T03:45:08.526Z,0.00
2018-04-28T03:46:08.507Z,0.00
2018-04-28T03:47:08.484Z,0.00
2018-04-28T03:48:08.470Z,0.00
2018-04-28T03:49:08.446Z,0.00
2018-04-28T03:50:08.430Z,0.00
2018-04-28T03:51:08.409Z,0.00
2018-04-28T03:52:08.397Z,0.00
2018-04-28T03:53:08.367Z,0.00
2018-04-28T03:54:08.349Z,0.00
2018-04-28T03:55:08.326Z,0.00
2018-04-28T03:56:08.304Z,0.00
2018-04-28T03:57:08.285Z,0.00
2018-04-28T03:58:08.266Z,0.00
2018-04-28T03:59:08.253Z,0.00
2018-04-28T04:00:08.226Z,0.00
2018-04-28T04:01:08.202Z,0.00
2018-04-28T04:02:08.183Z,0.00
2018-04-28T04:03:08.163Z,0.00
2018-04-28T04:04:08.152Z,0.00
2018-04-28T04:05:08.123Z,0.00
2018-04-28T04:06:08.104Z,0.00
2018-04-28T04:07:08.083Z,0.00
2018-04-28T04:08:08.071Z,0.00
2018-04-28T04:09:08.042Z,0.00
2018-04-28T04:10:08.044Z,0.00
2018-04-28T04:11:08.003Z,0.00
2018-04-28T04:12:08.662Z,0.00
2018-04-28T04:13:07.986Z,0.00
2018-04-28T04:14:07.972Z,0.00
2018-04-28T04:15:07.975Z,0.00
2018-04-28T04:16:07.925Z,0.00
2018-04-28T04:17:07.906Z,0.00
2018-04-28T04:18:07.919Z,0.00
2018-04-28T04:19:07.843Z,0.00
2018-04-28T04:20:07.828Z,0.00
2018-04-28T04:21:07.800Z,0.00
2018-04-28T04:22:07.802Z,0.00
2018-04-28T04:23:07.763Z,0.00
2018-04-28T04:24:07.740Z,0.00
2018-04-28T04:25:07.722Z,5.63
2018-04-28T04:26:07.705Z,5.63
2018-04-28T04:27:07.684Z,5.63
2018-04-28T04:28:07.660Z,5.63
2018-04-28T04:29:07.651Z,5.63
2018-04-28T04:30:07.621Z,5.63
2018-04-28T04:31:07.609Z,5.63
2018-04-28T04:32:07.584Z,5.63
2018-04-28T04:33:07.560Z,5.63
2018-04-28T04:34:07.540Z,5.63
2018-04-28T04:35:07.520Z,5.63
2018-04-28T04:36:07.500Z,5.63
2018-04-28T04:37:07.481Z,5.63
2018-04-28T04:38:07.465Z,5.63
2018-04-28T04:39:07.440Z,5.63
2018-04-28T04:40:07.423Z,11.25
2018-04-28T04:41:07.399Z,11.25
2018-04-28T04:42:07.381Z,11.25
2018-04-28T04:43:07.359Z,11.25
2018-04-28T04:44:07.342Z,11.25
2018-04-28T04:45:07.320Z,11.25
2018-04-28T04:46:07.302Z,11.25
2018-04-28T04:47:07.280Z,11.25
2018-04-28T04:48:07.264Z,11.25
2018-04-28T04:49:07.242Z,11.25
2018-04-28T04:50:07.226Z,11.25
2018-04-28T04:51:07.203Z,11.25
2018-04-28T04:52:07.184Z,11.25
2018-04-28T04:53:07.162Z,11.25
2018-04-28T04:54:07.143Z,11.25
2018-04-28T04:55:07.123Z,11.25
2018-04-28T04:56:07.104Z,11.25
2018-04-28T04:57:07.082Z,11.25
2018-04-28T04:58:07.062Z,16.88
2018-04-28T04:59:07.043Z,16.88
2018-04-28T05:00:07.024Z,16.88
2018-04-28T05:01:07.002Z,16.88
2018-04-28T05:02:06.984Z,16.88
2018-04-28T05:03:06.962Z,16.88
2018-04-28T05:04:06.943Z,16.88
2018-04-28T05:05:06.966Z,16.88
2018-04-28T05:06:06.905Z,16.88
2018-04-28T05:07:06.889Z,16.88
2018-04-28T05:08:06.866Z,16.88
2018-04-28T05:09:06.846Z,16.88
2018-04-28T05:10:06.824Z,16.88
2018-04-28T05:11:06.809Z,16.88
2018-04-28T05:12:06.785Z,16.88
2018-04-28T05:13:06.766Z,22.50
2018-04-28T05:14:06.751Z,22.50
2018-04-28T05:15:06.730Z,22.50
2018-04-28T05:16:06.707Z,22.50
2018-04-28T05:17:06.689Z,22.50
2018-04-28T05:18:06.666Z,22.50
2018-04-28T05:19:06.728Z,22.50
2018-04-28T05:20:06.631Z,22.50
2018-04-28T05:21:06.617Z,22.50
2018-04-28T05:22:06.593Z,28.13
2018-04-28T05:23:06.568Z,28.13
2018-04-28T05:24:06.552Z,28.13
2018-04-28T05:25:06.536Z,28.13
2018-04-28T05:26:06.517Z,28.13
2018-04-28T05:27:06.518Z,28.13
2018-04-28T05:28:06.470Z,28.13
2018-04-28T05:29:06.453Z,28.13
2018-04-28T05:30:06.446Z,28.13
2018-04-28T05:31:06.443Z,28.13
2018-04-28T05:32:06.416Z,28.13
2018-04-28T05:33:06.395Z,28.13
2018-04-28T05:34:06.362Z,28.13
2018-04-28T05:35:06.333Z,33.75
2018-04-28T05:36:06.346Z,33.75
2018-04-28T05:37:06.292Z,33.75
2018-04-28T05:38:06.277Z,33.75
2018-04-28T05:39:06.258Z,33.75
2018-04-28T05:40:06.239Z,33.75
2018-04-28T05:41:06.216Z,33.75
2018-04-28T05:42:06.202Z,33.75
2018-04-28T05:43:06.176Z,33.75
2018-04-28T05:44:06.160Z,33.75
2018-04-28T05:45:06.138Z,33.75
2018-04-28T05:46:06.125Z,33.75
2018-04-28T05:47:06.102Z,33.75
2018-04-28T05:48:06.093Z,33.75
2018-04-28T05:49:06.066Z,33.75
2018-04-28T05:50:06.043Z,33.75
2018-04-28T05:51:06.036Z,39.38
2018-04-28T05:52:06.007Z,33.75
2018-04-28T05:53:05.992Z,33.75
2018-04-28T05:54:05.968Z,39.38
2018-04-28T05:55:05.950Z,39.38
2018-04-28T05:56:05.928Z,39.38
2018-04-28T05:57:05.928Z,39.38
2018-04-28T05:58:05.900Z,39.38
2018-04-28T05:59:05.870Z,39.38
2018-04-28T06:00:05.853Z,39.38
2018-04-28T06:01:05.833Z,33.75
2018-04-28T06:02:05.811Z,33.75
2018-04-28T06:03:05.798Z,33.75
2018-04-28T06:04:05.781Z,33.75
2018-04-28T06:05:05.760Z,33.75
2018-04-28T06:06:05.740Z,39.38
2018-04-28T06:07:05.721Z,39.38
2018-04-28T06:08:05.700Z,45.00
2018-04-28T06:09:05.686Z,45.00
2018-04-28T06:10:05.661Z,45.00
2018-04-28T06:11:05.641Z,45.00
2018-04-28T06:12:05.627Z,45.00
2018-04-28T06:13:05.606Z,45.00
2018-04-28T06:14:05.647Z,45.00
2018-04-28T06:15:05.569Z,50.63
2018-04-28T06:16:05.549Z,45.00
2018-04-28T06:17:05.530Z,45.00
2018-04-28T06:18:05.509Z,45.00
2018-04-28T06:19:05.492Z,45.00
2018-04-28T06:20:05.628Z,45.00
2018-04-28T06:21:05.457Z,45.00
2018-04-28T06:22:05.435Z,45.00
2018-04-28T06:23:05.418Z,45.00
2018-04-28T06:24:05.397Z,45.00
2018-04-28T06:25:05.382Z,50.63
2018-04-28T06:26:05.409Z,45.00
2018-04-28T06:27:05.363Z,50.63
2018-04-28T06:28:05.323Z,50.63
2018-04-28T06:29:05.314Z,50.63
2018-04-28T06:30:05.285Z,50.63
2018-04-28T06:31:05.266Z,50.63
2018-04-28T06:32:05.251Z,50.63
2018-04-28T06:33:05.231Z,50.63
2018-04-28T06:34:05.229Z,56.25
2018-04-28T06:35:05.192Z,56.25
2018-04-28T06:36:05.175Z,56.25
2018-04-28T06:37:05.157Z,56.25
2018-04-28T06:38:05.134Z,56.25
2018-04-28T06:39:05.116Z,56.25
2018-04-28T06:40:05.111Z,56.25
2018-04-28T06:41:05.090Z,56.25
2018-04-28T06:42:05.108Z,56.25
2018-04-28T06:43:05.042Z,50.63
2018-04-28T06:44:05.024Z,50.63
2018-04-28T06:45:05.006Z,50.63
2018-04-28T06:46:04.988Z,50.63
2018-04-28T06:47:04.968Z,50.63
2018-04-28T06:48:04.952Z,50.63
2018-04-28T06:49:04.945Z,56.25
2018-04-28T06:50:04.912Z,56.25
2018-04-28T06:51:04.955Z,50.63
2018-04-28T06:52:04.896Z,50.63
2018-04-28T06:53:04.858Z,56.25
2018-04-28T06:54:07.693Z,56.25
2018-04-28T06:55:04.831Z,61.88
2018-04-28T06:56:04.824Z,61.88
2018-04-28T06:57:04.826Z,61.88
2018-04-28T06:58:04.800Z,61.88
2018-04-28T06:59:04.757Z,67.50
2018-04-28T07:00:04.775Z,73.13
2018-04-28T07:01:04.711Z,73.13
2018-04-28T07:02:04.695Z,73.13
2018-04-28T07:03:04.674Z,73.13
2018-04-28T07:04:04.664Z,73.13
2018-04-28T07:05:04.673Z,67.50
2018-04-28T07:06:04.660Z,67.50
2018-04-28T07:07:04.619Z,67.50
2018-04-28T07:08:04.583Z,73.13
2018-04-28T07:09:04.577Z,67.50
2018-04-28T07:10:05.302Z,67.50
2018-04-28T07:11:04.577Z,67.50
2018-04-28T07:12:04.563Z,67.50
2018-04-28T07:13:04.516Z,67.50
2018-04-28T07:14:04.490Z,61.88
2018-04-28T07:15:04.478Z,61.88
2018-04-28T07:16:04.438Z,67.50
2018-04-28T07:17:04.425Z,67.50
2018-04-28T07:18:04.412Z,67.50
2018-04-28T07:19:04.388Z,67.50
2018-04-28T07:20:04.379Z,73.13
2018-04-28T07:21:04.400Z,78.75
2018-04-28T07:22:04.336Z,73.13
2018-04-28T07:23:04.314Z,73.13
2018-04-28T07:24:04.294Z,67.50
2018-04-28T07:25:04.338Z,73.13
2018-04-28T07:26:04.269Z,73.13
2018-04-28T07:27:04.267Z,67.50
2018-04-28T07:28:04.246Z,67.50
2018-04-28T07:29:04.246Z,67.50
2018-04-28T07:30:04.264Z,73.13
2018-04-28T07:31:04.169Z,78.75
2018-04-28T07:32:04.153Z,73.13
2018-04-28T07:33:04.131Z,73.13
2018-04-28T07:34:04.118Z,78.75
2018-04-28T07:35:04.103Z,78.75
2018-04-28T07:36:04.099Z,78.75
2018-04-28T07:37:04.065Z,78.75
2018-04-28T07:38:04.118Z,78.75
2018-04-28T07:39:04.124Z,73.13
2018-04-28T07:40:04.004Z,67.50
2018-04-28T07:41:04.003Z,61.88
2018-04-28T07:42:04.024Z,67.50
2018-04-28T07:43:03.974Z,67.50
2018-04-28T07:44:03.935Z,56.25
2018-04-28T07:45:03.972Z,56.25
2018-04-28T07:46:03.917Z,56.25
2018-04-28T07:47:03.944Z,61.88
2018-04-28T07:48:03.923Z,61.88
2018-04-28T07:49:03.905Z,67.50
2018-04-28T07:50:03.836Z,67.50
2018-04-28T07:51:03.812Z,73.13
2018-04-28T07:52:03.792Z,67.50
2018-04-28T07:53:03.801Z,73.13
2018-04-28T07:54:03.859Z,73.13
2018-04-28T07:55:03.781Z,73.13
2018-04-28T07:56:03.721Z,73.13
2018-04-28T07:57:03.723Z,73.13
2018-04-28T07:58:03.718Z,67.50
2018-04-28T07:59:04.258Z,61.88
2018-04-28T08:00:03.648Z,61.88
2018-04-28T08:01:03.692Z,61.88
2018-04-28T08:02:03.672Z,61.88
2018-04-28T08:03:03.598Z,61.88
2018-04-28T08:04:03.595Z,61.88
2018-04-28T08:05:03.604Z,67.50
2018-04-28T08:06:03.543Z,67.50
2018-04-28T08:07:03.591Z,67.50
2018-04-28T08:08:03.507Z,67.50
2018-04-28T08:09:03.489Z,61.88
2018-04-28T08:10:03.470Z,61.88
2018-04-28T08:11:03.486Z,61.88
2018-04-28T08:12:03.494Z,61.88
2018-04-28T08:13:03.417Z,56.25
2018-04-28T08:14:03.413Z,56.25
2018-04-28T08:15:03.391Z,61.88
2018-04-28T08:16:03.365Z,61.88
2018-04-28T08:17:03.345Z,61.88
2018-04-28T08:18:03.331Z,61.88
2018-04-28T08:19:03.311Z,67.50
2018-04-28T08:20:03.297Z,67.50
2018-04-28T08:21:03.291Z,67.50
2018-04-28T08:22:03.254Z,67.50
2018-04-28T08:23:03.239Z,67.50
2018-04-28T08:24:03.219Z,67.50
2018-04-28T08:25:03.241Z,67.50
2018-04-28T08:26:03.181Z,67.50
2018-04-28T08:27:03.203Z,67.50
2018-04-28T08:28:03.147Z,67.50
2018-04-28T08:29:03.129Z,73.13
2018-04-28T08:30:03.111Z,73.13
2018-04-28T08:31:03.092Z,78.75
2018-04-28T08:32:03.075Z,78.75
2018-04-28T08:33:03.075Z,78.75
2018-04-28T08:34:03.039Z,84.38
2018-04-28T08:35:03.048Z,84.38
2018-04-28T08:36:03.007Z,90.00
2018-04-28T08:37:03.000Z,84.38
2018-04-28T08:38:02.968Z,84.38
2018-04-28T08:39:02.950Z,78.75
2018-04-28T08:40:02.930Z,78.75
2018-04-28T08:41:02.911Z,78.75
2018-04-28T08:42:02.897Z,84.38
2018-04-28T08:43:02.876Z,90.00
2018-04-28T08:44:02.861Z,90.00
2018-04-28T08:45:02.840Z,90.00
2018-04-28T08:46:02.822Z,95.63
2018-04-28T08:47:02.812Z,90.00
2018-04-28T08:48:02.856Z,78.75
2018-04-28T08:49:02.772Z,73.13
2018-04-28T08:50:02.750Z,73.13
2018-04-28T08:51:02.812Z,73.13
2018-04-28T08:52:02.729Z,84.38
2018-04-28T08:53:02.697Z,73.13
2018-04-28T08:54:02.681Z,78.75
2018-04-28T08:55:02.669Z,67.50
2018-04-28T08:56:02.651Z,67.50
2018-04-28T08:57:02.644Z,61.88
2018-04-28T08:58:02.606Z,67.50
2018-04-28T08:59:02.600Z,61.88
2018-04-28T09:00:02.575Z,56.25
2018-04-28T09:01:02.564Z,45.00
2018-04-28T09:02:02.539Z,50.63
2018-04-28T09:03:02.522Z,50.63
2018-04-28T09:04:02.559Z,56.25
2018-04-28T09:05:02.481Z,56.25
2018-04-28T09:06:02.465Z,61.88
2018-04-28T09:07:02.449Z,56.25
2018-04-28T09:08:02.431Z,61.88
2018-04-28T09:09:02.411Z,61.88
2018-04-28T09:10:02.394Z,56.25
2018-04-28T09:11:02.375Z,56.25
2018-04-28T09:12:02.359Z,56.25
2018-04-28T09:13:02.433Z,73.13
2018-04-28T09:14:02.324Z,67.50
2018-04-28T09:15:02.300Z,73.13
2018-04-28T09:16:02.292Z,73.13
2018-04-28T09:17:02.286Z,78.75
2018-04-28T09:18:02.250Z,90.00
2018-04-28T09:19:02.235Z,90.00
2018-04-28T09:20:02.214Z,101.25
2018-04-28T09:21:02.197Z,129.38
2018-04-28T09:22:02.178Z,140.63
2018-04-28T09:23:02.187Z,157.50
2018-04-28T09:24:02.143Z,135.00
2018-04-28T09:25:02.126Z,129.38
2018-04-28T09:26:02.109Z,140.63
2018-04-28T09:27:02.167Z,129.38
2018-04-28T09:28:02.155Z,135.00
2018-04-28T09:29:02.061Z,151.88
2018-04-28T09:30:02.036Z,151.88
2018-04-28T09:31:02.749Z,157.50
2018-04-28T09:32:02.005Z,157.50
2018-04-28T09:33:02.076Z,129.38
2018-04-28T09:34:01.989Z,123.75
2018-04-28T09:35:01.951Z,118.13
2018-04-28T09:36:01.935Z,123.75
2018-04-28T09:37:01.920Z,112.50
2018-04-28T09:38:01.897Z,106.88
2018-04-28T09:39:01.881Z,95.63
2018-04-28T09:40:01.922Z,95.63
2018-04-28T09:41:01.856Z,90.00
2018-04-28T09:42:01.873Z,84.38
2018-04-28T09:43:01.872Z,84.38
2018-04-28T09:44:01.848Z,95.63
2018-04-28T09:45:01.779Z,78.75
2018-04-28T09:46:01.760Z,56.25
2018-04-28T09:47:01.743Z,45.00
2018-04-28T09:48:01.726Z,45.00
2018-04-28T09:49:01.713Z,45.00
2018-04-28T09:50:01.694Z,50.63
2018-04-28T09:51:01.680Z,67.50
2018-04-28T09:52:01.658Z,84.38
2018-04-28T09:53:01.665Z,73.13
2018-04-28T09:54:01.626Z,61.88
2018-04-28T09:55:01.627Z,61.88
2018-04-28T09:56:01.605Z,61.88
2018-04-28T09:57:01.639Z,61.88
2018-04-28T09:58:01.565Z,61.88
2018-04-28T09:59:01.648Z,61.88
2018-04-28T10:00:01.527Z,56.25
2018-04-28T10:01:01.531Z,50.63
2018-04-28T10:02:01.519Z,50.63
2018-04-28T10:03:01.469Z,50.63
2018-04-28T10:04:01.451Z,50.63
2018-04-28T10:05:01.435Z,45.00
2018-04-28T10:06:01.432Z,50.63
2018-04-28T10:07:01.423Z,56.25
2018-04-28T10:08:01.381Z,61.88
2018-04-28T10:09:01.364Z,67.50
2018-04-28T10:10:01.349Z,61.88
2018-04-28T10:11:01.331Z,56.25
2018-04-28T10:12:01.321Z,56.25
2018-04-28T10:13:01.297Z,61.88
2018-04-28T10:14:01.280Z,56.25
2018-04-28T10:15:01.273Z,50.63
2018-04-28T10:16:01.267Z,50.63
2018-04-28T10:17:01.233Z,56.25
2018-04-28T10:18:01.211Z,61.88
2018-04-28T10:19:01.215Z,73.13
2018-04-28T10:20:01.199Z,73.13
2018-04-28T10:21:01.157Z,84.38
2018-04-28T10:22:01.142Z,84.38
2018-04-28T10:23:01.133Z,95.63
2018-04-28T10:24:01.146Z,106.88
2018-04-28T10:25:01.090Z,112.50
2018-04-28T10:26:01.106Z,135.00
2018-04-28T10:27:01.053Z,146.25
2018-04-28T10:28:01.775Z,112.50
2018-04-28T10:29:01.016Z,101.25
2018-04-28T10:30:01.063Z,95.63
2018-04-28T10:31:00.986Z,95.63
2018-04-28T10:32:00.977Z,73.13
2018-04-28T10:33:00.989Z,73.13
2018-04-28T10:34:00.935Z,73.13
2018-04-28T10:35:00.991Z,67.50
2018-04-28T10:36:00.909Z,61.88
2018-04-28T10:37:00.898Z,67.50
2018-04-28T10:38:00.948Z,73.13
2018-04-28T10:39:00.849Z,84.38
2018-04-28T10:40:00.834Z,84.38
2018-04-28T10:41:00.835Z,67.50
2018-04-28T10:42:00.795Z,67.50
2018-04-28T10:43:00.978Z,67.50
2018-04-28T10:44:00.805Z,67.50
2018-04-28T10:45:00.749Z,67.50
2018-04-28T10:46:00.723Z,67.50
2018-04-28T10:47:00.707Z,67.50
2018-04-28T10:48:00.688Z,73.13
2018-04-28T10:49:00.671Z,73.13
2018-04-28T10:50:00.655Z,78.75
2018-04-28T10:51:00.635Z,78.75
2018-04-28T10:52:00.620Z,78.75
2018-04-28T10:53:00.604Z,84.38
2018-04-28T10:54:00.587Z,90.00
2018-04-28T10:55:00.570Z,90.00
2018-04-28T10:56:00.552Z,90.00
2018-04-28T10:57:00.639Z,95.63
2018-04-28T10:58:00.526Z,106.88
2018-04-28T10:59:00.500Z,118.13
2018-04-28T11:00:00.572Z,118.13
2018-04-28T11:01:00.477Z,106.88
2018-04-28T11:02:00.448Z,106.88
2018-04-28T11:03:00.449Z,106.88
2018-04-28T11:04:00.719Z,106.88
2018-04-28T11:05:00.650Z,106.88
2018-04-28T11:06:00.432Z,106.88
2018-04-28T11:07:00.444Z,101.25
2018-04-28T11:08:00.373Z,101.25
2018-04-28T11:09:00.393Z,106.88
2018-04-28T11:10:00.358Z,106.88
2018-04-28T11:11:00.327Z,112.50
2018-04-28T11:12:00.374Z,112.50
2018-04-28T11:13:00.326Z,112.50
2018-04-28T11:14:00.281Z,123.75
2018-04-28T11:15:00.263Z,118.13
2018-04-28T11:16:00.254Z,112.50
2018-04-28T11:17:01.276Z,118.13
2018-04-28T11:18:00.823Z,118.13
2018-04-28T11:19:00.185Z,118.13
2018-04-28T11:20:01.862Z,118.13
2018-04-28T11:21:00.153Z,112.50
2018-04-28T11:22:00.160Z,112.50
2018-04-28T11:23:00.103Z,112.50
2018-04-28T11:25:41.028Z,118.13
2018-04-28T11:26:40.902Z,123.75
2018-04-28T11:28:40.520Z,135.00
2018-04-28T11:29:41.168Z,292.50
2018-04-28T11:31:33.251Z,106.88
2018-04-28T11:32:33.095Z,101.25
2018-04-28T11:34:26.505Z,95.63
2018-04-28T11:35:26.444Z,101.25
2018-04-28T11:37:20.874Z,106.88
2018-04-28T11:38:20.876Z,112.50
2018-04-28T11:40:14.356Z,112.50
2018-04-28T11:41:14.137Z,118.13
2018-04-28T11:43:07.550Z,118.13
2018-04-28T11:44:07.432Z,129.38
2018-04-28T11:46:01.794Z,174.38
2018-04-28T11:47:01.805Z,663.75
2018-04-28T11:48:55.118Z,281.25
2018-04-28T11:49:55.052Z,168.75
2018-04-28T11:51:48.452Z,135.00
2018-04-28T11:52:48.441Z,123.75
2018-04-28T11:54:42.736Z,84.38
2018-04-28T11:55:42.706Z,78.75
2018-04-28T11:57:36.112Z,67.50
2018-04-28T11:58:36.171Z,61.88
2018-04-28T12:00:29.424Z,56.25
2018-04-28T12:01:29.368Z,56.25
2018-04-28T12:03:22.834Z,50.63
2018-04-28T12:04:22.730Z,50.63
2018-04-28T12:06:16.066Z,50.63
2018-04-28T12:07:16.039Z,45.00
2018-04-28T12:08:16.023Z,39.38
2018-04-28T12:09:16.015Z,39.38
2018-04-28T12:10:15.991Z,39.38
2018-04-28T12:11:15.974Z,33.75
2018-04-28T12:12:22.669Z,33.75
2018-04-28T12:13:15.941Z,39.38
2018-04-28T12:14:15.930Z,39.38
2018-04-28T12:15:15.910Z,39.38
2018-04-28T12:16:15.953Z,50.63
2018-04-28T12:17:15.877Z,56.25
2018-04-28T12:18:15.866Z,50.63
2018-04-28T12:19:15.894Z,50.63
2018-04-28T12:20:15.843Z,50.63
2018-04-28T12:21:15.808Z,56.25
2018-04-28T12:22:15.799Z,61.88
2018-04-28T12:23:15.782Z,73.13
2018-04-28T12:24:15.759Z,84.38
2018-04-28T12:25:15.741Z,106.88
2018-04-28T12:26:15.774Z,129.38
2018-04-28T12:27:15.763Z,168.75
2018-04-28T12:28:16.164Z,196.88
2018-04-28T12:29:15.678Z,691.88
2018-04-28T12:30:16.660Z,697.50
2018-04-28T12:31:15.660Z,680.63
2018-04-28T12:32:16.296Z,174.38
2018-04-28T12:33:15.608Z,213.75
2018-04-28T12:34:15.597Z,613.13
2018-04-28T12:35:15.591Z,725.63
2018-04-28T12:36:15.566Z,281.25
2018-04-28T12:37:15.562Z,163.13
2018-04-28T12:38:15.533Z,275.63
2018-04-28T12:39:15.534Z,135.00
2018-04-28T12:40:15.517Z,129.38
2018-04-28T12:41:15.496Z,112.50
2018-04-28T12:42:15.482Z,112.50
2018-04-28T12:43:15.465Z,106.88
2018-04-28T12:44:15.465Z,84.38
2018-04-28T12:45:15.451Z,78.75
2018-04-28T12:46:15.426Z,78.75
2018-04-28T12:47:15.412Z,84.38
2018-04-28T12:48:15.399Z,90.00
2018-04-28T12:49:15.386Z,101.25
2018-04-28T12:50:15.370Z,106.88
2018-04-28T12:51:15.359Z,95.63
2018-04-28T12:52:15.343Z,118.13
2018-04-28T12:53:15.327Z,146.25
2018-04-28T12:54:15.322Z,174.38
2018-04-28T12:55:15.307Z,511.88
2018-04-28T12:56:15.294Z,483.75
2018-04-28T12:57:15.270Z,236.25
2018-04-28T12:58:15.269Z,135.00
2018-04-28T12:59:15.268Z,118.13
2018-04-28T13:00:15.278Z,112.50
2018-04-28T13:01:16.236Z,106.88
2018-04-28T13:02:16.214Z,101.25
2018-04-28T13:03:15.246Z,90.00
2018-04-28T13:04:15.233Z,90.00
2018-04-28T13:05:15.167Z,84.38
2018-04-28T13:06:15.271Z,90.00
2018-04-28T13:07:15.197Z,78.75
2018-04-28T13:08:15.125Z,73.13
2018-04-28T13:09:15.106Z,61.88
2018-04-28T13:10:15.141Z,61.88
2018-04-28T13:11:15.128Z,61.88
2018-04-28T13:12:15.071Z,73.13